sensor_id;sensor_type;location;lat;lon;timestamp;P1;durP1;ratioP1;P2;durP2;ratioP2
20140;SDS011;10231;47.702;9.826;2022-12-17T00:00:05;38.30;;;25.97;;
20140;SDS011;10231;47.702;9.826;2022-12-17T00:02:55;43.60;;;27.50;;
20140;SDS011;10231;47.702;9.826;2022-12-17T00:05:43;42.70;;;26.63;;
20140;SDS011;10231;47.702;9.826;2022-12-17T00:08:28;39.00;;;25.43;;
20140;SDS011;10231;47.702;9.826;2022-12-17T00:11:12;43.87;;;26.47;;
20140;SDS011;10231;47.702;9.826;2022-12-17T00:13:56;47.07;;;27.50;;
20140;SDS011;10231;47.702;9.826;2022-12-17T00:16:40;41.40;;;25.20;;
20140;SDS011;10231;47.702;9.826;2022-12-17T00:19:24;41.83;;;25.87;;
20140;SDS011;10231;47.702;9.826;2022-12-17T00:22:08;42.03;;;25.87;;
20140;SDS011;10231;47.702;9.826;2022-12-17T00:24:52;44.63;;;27.03;;
20140;SDS011;10231;47.702;9.826;2022-12-17T00:27:36;41.13;;;25.83;;
20140;SDS011;10231;47.702;9.826;2022-12-17T00:30:20;42.00;;;25.80;;
20140;SDS011;10231;47.702;9.826;2022-12-17T00:33:04;42.43;;;25.90;;
20140;SDS011;10231;47.702;9.826;2022-12-17T00:35:52;41.77;;;26.67;;
20140;SDS011;10231;47.702;9.826;2022-12-17T00:38:37;40.60;;;26.00;;
20140;SDS011;10231;47.702;9.826;2022-12-17T00:41:21;42.40;;;26.90;;
20140;SDS011;10231;47.702;9.826;2022-12-17T00:44:05;41.80;;;25.67;;
20140;SDS011;10231;47.702;9.826;2022-12-17T00:46:49;37.50;;;24.50;;
20140;SDS011;10231;47.702;9.826;2022-12-17T00:49:33;46.77;;;27.23;;
20140;SDS011;10231;47.702;9.826;2022-12-17T00:52:17;38.30;;;24.93;;
20140;SDS011;10231;47.702;9.826;2022-12-17T00:55:02;38.70;;;24.80;;
20140;SDS011;10231;47.702;9.826;2022-12-17T00:57:51;36.50;;;24.03;;
20140;SDS011;10231;47.702;9.826;2022-12-17T01:00:36;36.77;;;23.60;;
20140;SDS011;10231;47.702;9.826;2022-12-17T01:03:20;35.43;;;24.47;;
20140;SDS011;10231;47.702;9.826;2022-12-17T01:06:04;35.83;;;23.70;;
20140;SDS011;10231;47.702;9.826;2022-12-17T01:08:48;33.67;;;22.83;;
20140;SDS011;10231;47.702;9.826;2022-12-17T01:11:32;36.80;;;24.40;;
20140;SDS011;10231;47.702;9.826;2022-12-17T01:14:16;35.37;;;23.43;;
20140;SDS011;10231;47.702;9.826;2022-12-17T01:17:00;33.63;;;23.07;;
20140;SDS011;10231;47.702;9.826;2022-12-17T01:19:45;34.90;;;23.00;;
20140;SDS011;10231;47.702;9.826;2022-12-17T01:22:29;36.13;;;24.67;;
20140;SDS011;10231;47.702;9.826;2022-12-17T01:25:13;36.17;;;23.47;;
20140;SDS011;10231;47.702;9.826;2022-12-17T01:27:57;37.73;;;24.13;;
20140;SDS011;10231;47.702;9.826;2022-12-17T01:30:41;38.77;;;24.67;;
20140;SDS011;10231;47.702;9.826;2022-12-17T01:33:25;35.53;;;24.27;;
20140;SDS011;10231;47.702;9.826;2022-12-17T01:36:09;37.17;;;24.47;;
20140;SDS011;10231;47.702;9.826;2022-12-17T01:38:53;35.80;;;22.83;;
20140;SDS011;10231;47.702;9.826;2022-12-17T01:41:37;35.03;;;23.57;;
20140;SDS011;10231;47.702;9.826;2022-12-17T01:47:58;34.27;;;23.63;;
20140;SDS011;10231;47.702;9.826;2022-12-17T01:50:38;38.60;;;23.23;;
20140;SDS011;10231;47.702;9.826;2022-12-17T01:53:28;32.10;;;22.73;;
20140;SDS011;10231;47.702;9.826;2022-12-17T01:56:15;32.70;;;22.03;;
20140;SDS011;10231;47.702;9.826;2022-12-17T01:59:00;32.00;;;22.00;;
20140;SDS011;10231;47.702;9.826;2022-12-17T02:01:46;31.43;;;22.03;;
20140;SDS011;10231;47.702;9.826;2022-12-17T02:04:47;30.13;;;20.90;;
20140;SDS011;10231;47.702;9.826;2022-12-17T02:10:43;28.63;;;21.77;;
20140;SDS011;10231;47.702;9.826;2022-12-17T02:13:46;32.27;;;21.50;;
20140;SDS011;10231;47.702;9.826;2022-12-17T02:16:42;31.63;;;21.33;;
20140;SDS011;10231;47.702;9.826;2022-12-17T02:19:40;29.47;;;21.23;;
20140;SDS011;10231;47.702;9.826;2022-12-17T02:25:50;32.10;;;22.07;;
20140;SDS011;10231;47.702;9.826;2022-12-17T02:28:43;29.00;;;21.23;;
20140;SDS011;10231;47.702;9.826;2022-12-17T02:31:31;31.70;;;22.90;;
20140;SDS011;10231;47.702;9.826;2022-12-17T02:34:22;29.47;;;21.83;;
20140;SDS011;10231;47.702;9.826;2022-12-17T02:37:06;31.13;;;22.17;;
20140;SDS011;10231;47.702;9.826;2022-12-17T02:39:50;34.70;;;22.27;;
20140;SDS011;10231;47.702;9.826;2022-12-17T02:42:34;27.80;;;21.47;;
20140;SDS011;10231;47.702;9.826;2022-12-17T02:45:19;30.27;;;20.87;;
20140;SDS011;10231;47.702;9.826;2022-12-17T02:48:04;31.07;;;21.73;;
20140;SDS011;10231;47.702;9.826;2022-12-17T02:50:50;28.30;;;21.23;;
20140;SDS011;10231;47.702;9.826;2022-12-17T02:53:34;29.90;;;22.33;;
20140;SDS011;10231;47.702;9.826;2022-12-17T02:56:27;30.63;;;21.50;;
20140;SDS011;10231;47.702;9.826;2022-12-17T02:59:15;35.10;;;24.07;;
20140;SDS011;10231;47.702;9.826;2022-12-17T03:01:59;30.07;;;22.07;;
20140;SDS011;10231;47.702;9.826;2022-12-17T03:04:43;30.23;;;21.77;;
20140;SDS011;10231;47.702;9.826;2022-12-17T03:07:27;32.17;;;22.80;;
20140;SDS011;10231;47.702;9.826;2022-12-17T03:10:11;33.20;;;22.03;;
20140;SDS011;10231;47.702;9.826;2022-12-17T03:12:55;35.07;;;23.50;;
20140;SDS011;10231;47.702;9.826;2022-12-17T03:15:39;32.30;;;22.83;;
20140;SDS011;10231;47.702;9.826;2022-12-17T03:18:23;32.13;;;22.77;;
20140;SDS011;10231;47.702;9.826;2022-12-17T03:21:07;34.20;;;23.57;;
20140;SDS011;10231;47.702;9.826;2022-12-17T03:23:51;32.30;;;23.83;;
20140;SDS011;10231;47.702;9.826;2022-12-17T03:26:35;31.37;;;23.07;;
20140;SDS011;10231;47.702;9.826;2022-12-17T03:29:19;34.13;;;24.47;;
20140;SDS011;10231;47.702;9.826;2022-12-17T03:32:04;35.90;;;22.37;;
20140;SDS011;10231;47.702;9.826;2022-12-17T03:34:48;33.10;;;22.43;;
20140;SDS011;10231;47.702;9.826;2022-12-17T03:37:32;30.87;;;21.87;;
20140;SDS011;10231;47.702;9.826;2022-12-17T03:40:16;32.93;;;24.07;;
20140;SDS011;10231;47.702;9.826;2022-12-17T03:43:06;33.33;;;23.47;;
20140;SDS011;10231;47.702;9.826;2022-12-17T03:45:56;31.60;;;21.40;;
20140;SDS011;10231;47.702;9.826;2022-12-17T03:48:40;31.70;;;21.43;;
20140;SDS011;10231;47.702;9.826;2022-12-17T03:51:24;31.83;;;22.13;;
20140;SDS011;10231;47.702;9.826;2022-12-17T03:54:08;34.57;;;23.10;;
20140;SDS011;10231;47.702;9.826;2022-12-17T03:56:52;31.80;;;23.03;;
20140;SDS011;10231;47.702;9.826;2022-12-17T03:59:36;34.00;;;23.23;;
20140;SDS011;10231;47.702;9.826;2022-12-17T04:02:20;35.47;;;23.73;;
20140;SDS011;10231;47.702;9.826;2022-12-17T04:05:04;32.63;;;24.60;;
20140;SDS011;10231;47.702;9.826;2022-12-17T04:07:49;35.37;;;24.60;;
20140;SDS011;10231;47.702;9.826;2022-12-17T04:10:33;40.23;;;24.83;;
20140;SDS011;10231;47.702;9.826;2022-12-17T04:13:17;48.87;;;28.93;;
20140;SDS011;10231;47.702;9.826;2022-12-17T04:16:01;44.23;;;26.50;;
20140;SDS011;10231;47.702;9.826;2022-12-17T04:18:45;39.10;;;25.53;;
20140;SDS011;10231;47.702;9.826;2022-12-17T04:21:29;37.63;;;24.83;;
20140;SDS011;10231;47.702;9.826;2022-12-17T04:24:13;36.33;;;23.80;;
20140;SDS011;10231;47.702;9.826;2022-12-17T04:26:57;37.47;;;23.90;;
20140;SDS011;10231;47.702;9.826;2022-12-17T04:29:41;32.53;;;22.03;;
20140;SDS011;10231;47.702;9.826;2022-12-17T04:32:25;34.83;;;22.80;;
20140;SDS011;10231;47.702;9.826;2022-12-17T04:35:09;33.80;;;22.10;;
20140;SDS011;10231;47.702;9.826;2022-12-17T04:37:53;36.53;;;22.53;;
20140;SDS011;10231;47.702;9.826;2022-12-17T04:40:37;37.33;;;24.30;;
20140;SDS011;10231;47.702;9.826;2022-12-17T04:43:21;39.30;;;24.83;;
20140;SDS011;10231;47.702;9.826;2022-12-17T04:46:05;34.03;;;22.40;;
20140;SDS011;10231;47.702;9.826;2022-12-17T04:48:49;34.57;;;23.67;;
20140;SDS011;10231;47.702;9.826;2022-12-17T04:51:33;34.40;;;21.90;;
20140;SDS011;10231;47.702;9.826;2022-12-17T04:54:17;34.60;;;21.43;;
20140;SDS011;10231;47.702;9.826;2022-12-17T04:57:01;37.43;;;23.03;;
20140;SDS011;10231;47.702;9.826;2022-12-17T04:59:45;33.37;;;22.07;;
20140;SDS011;10231;47.702;9.826;2022-12-17T05:02:29;34.83;;;22.53;;
20140;SDS011;10231;47.702;9.826;2022-12-17T05:05:13;35.40;;;22.47;;
20140;SDS011;10231;47.702;9.826;2022-12-17T05:07:57;34.60;;;22.80;;
20140;SDS011;10231;47.702;9.826;2022-12-17T05:10:41;34.47;;;21.60;;
20140;SDS011;10231;47.702;9.826;2022-12-17T05:13:26;32.50;;;21.80;;
20140;SDS011;10231;47.702;9.826;2022-12-17T05:16:10;34.20;;;22.73;;
20140;SDS011;10231;47.702;9.826;2022-12-17T05:18:54;32.90;;;21.27;;
20140;SDS011;10231;47.702;9.826;2022-12-17T05:21:38;31.73;;;21.13;;
20140;SDS011;10231;47.702;9.826;2022-12-17T05:24:23;33.03;;;21.83;;
20140;SDS011;10231;47.702;9.826;2022-12-17T05:27:07;36.03;;;21.83;;
20140;SDS011;10231;47.702;9.826;2022-12-17T05:29:51;36.90;;;23.00;;
20140;SDS011;10231;47.702;9.826;2022-12-17T05:32:35;35.20;;;22.60;;
20140;SDS011;10231;47.702;9.826;2022-12-17T05:35:19;33.10;;;21.30;;
20140;SDS011;10231;47.702;9.826;2022-12-17T05:38:04;33.70;;;22.83;;
20140;SDS011;10231;47.702;9.826;2022-12-17T05:40:49;32.57;;;21.47;;
20140;SDS011;10231;47.702;9.826;2022-12-17T05:43:34;32.20;;;22.77;;
20140;SDS011;10231;47.702;9.826;2022-12-17T05:46:18;31.50;;;21.47;;
20140;SDS011;10231;47.702;9.826;2022-12-17T05:49:02;32.03;;;22.03;;
20140;SDS011;10231;47.702;9.826;2022-12-17T05:51:46;29.30;;;21.10;;
20140;SDS011;10231;47.702;9.826;2022-12-17T05:54:50;32.67;;;24.37;;
20140;SDS011;10231;47.702;9.826;2022-12-17T05:57:34;32.77;;;22.63;;
20140;SDS011;10231;47.702;9.826;2022-12-17T06:00:18;34.10;;;21.37;;
20140;SDS011;10231;47.702;9.826;2022-12-17T06:03:03;30.80;;;21.80;;
20140;SDS011;10231;47.702;9.826;2022-12-17T06:05:47;29.93;;;20.30;;
20140;SDS011;10231;47.702;9.826;2022-12-17T06:08:39;28.80;;;20.77;;
20140;SDS011;10231;47.702;9.826;2022-12-17T06:11:23;32.53;;;20.50;;
20140;SDS011;10231;47.702;9.826;2022-12-17T06:14:07;30.97;;;20.57;;
20140;SDS011;10231;47.702;9.826;2022-12-17T06:16:52;33.53;;;20.97;;
20140;SDS011;10231;47.702;9.826;2022-12-17T06:19:35;29.03;;;21.50;;
20140;SDS011;10231;47.702;9.826;2022-12-17T06:22:19;28.83;;;19.53;;
20140;SDS011;10231;47.702;9.826;2022-12-17T06:25:04;30.77;;;20.93;;
20140;SDS011;10231;47.702;9.826;2022-12-17T06:27:48;33.07;;;21.97;;
20140;SDS011;10231;47.702;9.826;2022-12-17T06:30:39;25.87;;;19.67;;
20140;SDS011;10231;47.702;9.826;2022-12-17T06:33:23;27.33;;;19.77;;
20140;SDS011;10231;47.702;9.826;2022-12-17T06:36:07;28.40;;;18.73;;
20140;SDS011;10231;47.702;9.826;2022-12-17T06:38:51;28.37;;;19.97;;
20140;SDS011;10231;47.702;9.826;2022-12-17T06:41:35;28.83;;;19.40;;
20140;SDS011;10231;47.702;9.826;2022-12-17T06:44:19;28.45;;;19.83;;
20140;SDS011;10231;47.702;9.826;2022-12-17T06:47:03;26.60;;;18.48;;
20140;SDS011;10231;47.702;9.826;2022-12-17T06:49:47;28.70;;;19.80;;
20140;SDS011;10231;47.702;9.826;2022-12-17T06:52:31;30.23;;;19.77;;
20140;SDS011;10231;47.702;9.826;2022-12-17T06:55:15;29.27;;;21.15;;
20140;SDS011;10231;47.702;9.826;2022-12-17T06:57:59;26.37;;;19.03;;
20140;SDS011;10231;47.702;9.826;2022-12-17T07:00:44;31.90;;;20.73;;
20140;SDS011;10231;47.702;9.826;2022-12-17T07:03:29;26.70;;;20.00;;
20140;SDS011;10231;47.702;9.826;2022-12-17T07:06:13;28.83;;;20.93;;
20140;SDS011;10231;47.702;9.826;2022-12-17T07:08:57;28.80;;;19.20;;
20140;SDS011;10231;47.702;9.826;2022-12-17T07:11:42;25.15;;;18.45;;
20140;SDS011;10231;47.702;9.826;2022-12-17T07:14:26;28.85;;;20.27;;
20140;SDS011;10231;47.702;9.826;2022-12-17T07:17:10;28.77;;;20.70;;
20140;SDS011;10231;47.702;9.826;2022-12-17T07:19:54;27.30;;;19.97;;
20140;SDS011;10231;47.702;9.826;2022-12-17T07:22:38;27.73;;;20.48;;
20140;SDS011;10231;47.702;9.826;2022-12-17T07:25:22;28.05;;;20.15;;
20140;SDS011;10231;47.702;9.826;2022-12-17T07:28:06;29.67;;;20.67;;
20140;SDS011;10231;47.702;9.826;2022-12-17T07:30:50;28.15;;;20.30;;
20140;SDS011;10231;47.702;9.826;2022-12-17T07:33:34;30.27;;;20.52;;
20140;SDS011;10231;47.702;9.826;2022-12-17T07:36:18;27.90;;;18.98;;
20140;SDS011;10231;47.702;9.826;2022-12-17T07:39:02;27.63;;;19.15;;
20140;SDS011;10231;47.702;9.826;2022-12-17T07:41:47;26.77;;;18.98;;
20140;SDS011;10231;47.702;9.826;2022-12-17T07:44:30;28.08;;;18.80;;
20140;SDS011;10231;47.702;9.826;2022-12-17T07:47:15;25.40;;;18.83;;
20140;SDS011;10231;47.702;9.826;2022-12-17T07:49:59;27.63;;;18.85;;
20140;SDS011;10231;47.702;9.826;2022-12-17T07:52:43;27.30;;;18.92;;
20140;SDS011;10231;47.702;9.826;2022-12-17T07:55:27;25.30;;;18.38;;
20140;SDS011;10231;47.702;9.826;2022-12-17T07:58:11;25.05;;;18.40;;
20140;SDS011;10231;47.702;9.826;2022-12-17T08:00:58;26.80;;;18.17;;
20140;SDS011;10231;47.702;9.826;2022-12-17T08:03:42;33.60;;;20.70;;
20140;SDS011;10231;47.702;9.826;2022-12-17T08:06:26;30.20;;;19.87;;
20140;SDS011;10231;47.702;9.826;2022-12-17T08:09:10;28.52;;;19.95;;
20140;SDS011;10231;47.702;9.826;2022-12-17T08:11:54;28.20;;;20.10;;
20140;SDS011;10231;47.702;9.826;2022-12-17T08:14:38;32.17;;;20.53;;
20140;SDS011;10231;47.702;9.826;2022-12-17T08:17:22;27.10;;;19.83;;
20140;SDS011;10231;47.702;9.826;2022-12-17T08:20:07;30.13;;;21.93;;
20140;SDS011;10231;47.702;9.826;2022-12-17T08:22:51;28.27;;;20.33;;
20140;SDS011;10231;47.702;9.826;2022-12-17T08:25:35;26.60;;;19.73;;
20140;SDS011;10231;47.702;9.826;2022-12-17T08:28:19;27.03;;;19.57;;
20140;SDS011;10231;47.702;9.826;2022-12-17T08:31:03;29.70;;;20.47;;
20140;SDS011;10231;47.702;9.826;2022-12-17T08:33:47;31.80;;;20.47;;
20140;SDS011;10231;47.702;9.826;2022-12-17T08:36:31;29.60;;;21.47;;
20140;SDS011;10231;47.702;9.826;2022-12-17T08:39:15;35.07;;;24.80;;
20140;SDS011;10231;47.702;9.826;2022-12-17T08:41:59;50.43;;;23.90;;
20140;SDS011;10231;47.702;9.826;2022-12-17T08:44:43;29.07;;;21.97;;
20140;SDS011;10231;47.702;9.826;2022-12-17T08:47:27;28.27;;;20.13;;
20140;SDS011;10231;47.702;9.826;2022-12-17T08:50:11;25.80;;;19.23;;
20140;SDS011;10231;47.702;9.826;2022-12-17T08:52:56;29.60;;;22.00;;
20140;SDS011;10231;47.702;9.826;2022-12-17T08:55:45;29.27;;;21.17;;
20140;SDS011;10231;47.702;9.826;2022-12-17T08:58:30;29.87;;;22.13;;
20140;SDS011;10231;47.702;9.826;2022-12-17T09:01:15;35.40;;;24.07;;
20140;SDS011;10231;47.702;9.826;2022-12-17T09:03:59;28.60;;;21.23;;
20140;SDS011;10231;47.702;9.826;2022-12-17T09:06:43;30.07;;;22.17;;
20140;SDS011;10231;47.702;9.826;2022-12-17T09:09:27;26.20;;;20.67;;
20140;SDS011;10231;47.702;9.826;2022-12-17T09:12:11;30.03;;;21.80;;
20140;SDS011;10231;47.702;9.826;2022-12-17T09:14:56;28.77;;;21.70;;
20140;SDS011;10231;47.702;9.826;2022-12-17T09:17:40;27.57;;;20.43;;
20140;SDS011;10231;47.702;9.826;2022-12-17T09:20:24;28.40;;;20.93;;
20140;SDS011;10231;47.702;9.826;2022-12-17T09:23:08;25.37;;;19.50;;
20140;SDS011;10231;47.702;9.826;2022-12-17T09:25:55;28.10;;;20.40;;
20140;SDS011;10231;47.702;9.826;2022-12-17T09:28:39;29.13;;;21.03;;
20140;SDS011;10231;47.702;9.826;2022-12-17T09:31:24;27.50;;;21.30;;
20140;SDS011;10231;47.702;9.826;2022-12-17T09:34:10;25.60;;;19.83;;
20140;SDS011;10231;47.702;9.826;2022-12-17T09:36:54;31.07;;;22.43;;
20140;SDS011;10231;47.702;9.826;2022-12-17T09:39:38;25.03;;;19.23;;
20140;SDS011;10231;47.702;9.826;2022-12-17T09:42:30;30.57;;;21.83;;
20140;SDS011;10231;47.702;9.826;2022-12-17T09:45:36;28.40;;;21.17;;
20140;SDS011;10231;47.702;9.826;2022-12-17T09:48:44;29.33;;;21.20;;
20140;SDS011;10231;47.702;9.826;2022-12-17T09:51:41;30.20;;;19.63;;
20140;SDS011;10231;47.702;9.826;2022-12-17T09:54:32;26.40;;;19.83;;
20140;SDS011;10231;47.702;9.826;2022-12-17T09:57:24;30.43;;;21.33;;
20140;SDS011;10231;47.702;9.826;2022-12-17T10:00:14;25.70;;;19.80;;
20140;SDS011;10231;47.702;9.826;2022-12-17T10:03:03;27.13;;;19.60;;
20140;SDS011;10231;47.702;9.826;2022-12-17T10:05:56;27.80;;;21.43;;
20140;SDS011;10231;47.702;9.826;2022-12-17T10:08:46;28.33;;;22.70;;
20140;SDS011;10231;47.702;9.826;2022-12-17T10:11:35;35.10;;;25.17;;
20140;SDS011;10231;47.702;9.826;2022-12-17T10:14:20;49.43;;;35.20;;
20140;SDS011;10231;47.702;9.826;2022-12-17T10:17:13;49.60;;;34.67;;
20140;SDS011;10231;47.702;9.826;2022-12-17T10:19:59;42.67;;;32.00;;
20140;SDS011;10231;47.702;9.826;2022-12-17T10:22:48;36.83;;;26.93;;
20140;SDS011;10231;47.702;9.826;2022-12-17T10:25:33;29.17;;;21.77;;
20140;SDS011;10231;47.702;9.826;2022-12-17T10:28:19;28.03;;;20.10;;
20140;SDS011;10231;47.702;9.826;2022-12-17T10:31:09;26.73;;;18.90;;
20140;SDS011;10231;47.702;9.826;2022-12-17T10:33:58;28.53;;;19.43;;
20140;SDS011;10231;47.702;9.826;2022-12-17T10:36:46;26.73;;;20.13;;
20140;SDS011;10231;47.702;9.826;2022-12-17T10:39:33;26.53;;;19.70;;
20140;SDS011;10231;47.702;9.826;2022-12-17T10:42:23;25.40;;;18.63;;
20140;SDS011;10231;47.702;9.826;2022-12-17T10:45:25;26.80;;;19.97;;
20140;SDS011;10231;47.702;9.826;2022-12-17T10:48:26;25.23;;;19.47;;
20140;SDS011;10231;47.702;9.826;2022-12-17T10:57:08;26.10;;;20.10;;
20140;SDS011;10231;47.702;9.826;2022-12-17T11:06:29;24.93;;;19.30;;
20140;SDS011;10231;47.702;9.826;2022-12-17T11:12:12;25.00;;;18.97;;
20140;SDS011;10231;47.702;9.826;2022-12-17T11:15:00;22.00;;;17.90;;
20140;SDS011;10231;47.702;9.826;2022-12-17T11:17:49;23.93;;;18.87;;
20140;SDS011;10231;47.702;9.826;2022-12-17T11:20:39;24.87;;;18.43;;
20140;SDS011;10231;47.702;9.826;2022-12-17T11:23:51;24.70;;;17.17;;
20140;SDS011;10231;47.702;9.826;2022-12-17T11:26:37;22.20;;;17.20;;
20140;SDS011;10231;47.702;9.826;2022-12-17T11:29:23;21.77;;;16.83;;
20140;SDS011;10231;47.702;9.826;2022-12-17T11:38:28;20.90;;;15.63;;
20140;SDS011;10231;47.702;9.826;2022-12-17T11:41:33;20.03;;;15.07;;
20140;SDS011;10231;47.702;9.826;2022-12-17T11:56:22;24.70;;;16.33;;
20140;SDS011;10231;47.702;9.826;2022-12-17T11:59:35;21.33;;;16.83;;
20140;SDS011;10231;47.702;9.826;2022-12-17T12:05:54;22.27;;;16.17;;
20140;SDS011;10231;47.702;9.826;2022-12-17T12:08:57;22.53;;;15.73;;
20140;SDS011;10231;47.702;9.826;2022-12-17T12:12:06;20.80;;;14.87;;
20140;SDS011;10231;47.702;9.826;2022-12-17T12:21:22;18.77;;;15.00;;
20140;SDS011;10231;47.702;9.826;2022-12-17T12:30:17;19.37;;;15.30;;
20140;SDS011;10231;47.702;9.826;2022-12-17T12:36:03;22.13;;;15.40;;
20140;SDS011;10231;47.702;9.826;2022-12-17T12:38:52;22.47;;;16.07;;
20140;SDS011;10231;47.702;9.826;2022-12-17T12:50:51;20.90;;;16.00;;
20140;SDS011;10231;47.702;9.826;2022-12-17T12:53:42;18.63;;;15.03;;
20140;SDS011;10231;47.702;9.826;2022-12-17T12:56:35;21.87;;;17.07;;
20140;SDS011;10231;47.702;9.826;2022-12-17T12:59:23;20.33;;;16.00;;
20140;SDS011;10231;47.702;9.826;2022-12-17T13:02:28;23.77;;;16.43;;
20140;SDS011;10231;47.702;9.826;2022-12-17T13:08:03;20.90;;;16.37;;
20140;SDS011;10231;47.702;9.826;2022-12-17T13:10:43;21.33;;;16.47;;
20140;SDS011;10231;47.702;9.826;2022-12-17T13:13:30;20.97;;;16.77;;
20140;SDS011;10231;47.702;9.826;2022-12-17T13:16:04;20.37;;;16.20;;
20140;SDS011;10231;47.702;9.826;2022-12-17T13:18:59;20.77;;;15.57;;
20140;SDS011;10231;47.702;9.826;2022-12-17T13:21:40;22.87;;;16.63;;
20140;SDS011;10231;47.702;9.826;2022-12-17T13:24:09;23.57;;;17.30;;
20140;SDS011;10231;47.702;9.826;2022-12-17T13:29:19;22.27;;;17.43;;
20140;SDS011;10231;47.702;9.826;2022-12-17T13:40:02;21.87;;;16.03;;
20140;SDS011;10231;47.702;9.826;2022-12-17T13:42:48;22.63;;;17.07;;
20140;SDS011;10231;47.702;9.826;2022-12-17T13:45:15;22.37;;;16.17;;
20140;SDS011;10231;47.702;9.826;2022-12-17T13:47:43;21.47;;;16.27;;
20140;SDS011;10231;47.702;9.826;2022-12-17T13:50:22;18.43;;;15.17;;
20140;SDS011;10231;47.702;9.826;2022-12-17T13:52:52;18.80;;;15.47;;
20140;SDS011;10231;47.702;9.826;2022-12-17T13:55:19;16.40;;;13.87;;
20140;SDS011;10231;47.702;9.826;2022-12-17T13:57:47;19.30;;;14.50;;
20140;SDS011;10231;47.702;9.826;2022-12-17T14:00:19;15.43;;;13.70;;
20140;SDS011;10231;47.702;9.826;2022-12-17T14:02:53;15.73;;;13.03;;
20140;SDS011;10231;47.702;9.826;2022-12-17T14:07:53;15.10;;;13.50;;
20140;SDS011;10231;47.702;9.826;2022-12-17T14:10:22;15.47;;;13.43;;
20140;SDS011;10231;47.702;9.826;2022-12-17T14:12:49;15.07;;;13.47;;
20140;SDS011;10231;47.702;9.826;2022-12-17T14:15:22;14.90;;;13.40;;
20140;SDS011;10231;47.702;9.826;2022-12-17T14:17:50;14.83;;;13.23;;
20140;SDS011;10231;47.702;9.826;2022-12-17T14:20:21;19.60;;;14.33;;
20140;SDS011;10231;47.702;9.826;2022-12-17T14:22:49;16.20;;;14.50;;
20140;SDS011;10231;47.702;9.826;2022-12-17T14:25:19;16.67;;;14.93;;
20140;SDS011;10231;47.702;9.826;2022-12-17T14:27:58;16.87;;;14.40;;
20140;SDS011;10231;47.702;9.826;2022-12-17T14:30:43;19.40;;;14.90;;
20140;SDS011;10231;47.702;9.826;2022-12-17T14:33:23;20.07;;;16.20;;
20140;SDS011;10231;47.702;9.826;2022-12-17T14:35:52;18.37;;;15.13;;
20140;SDS011;10231;47.702;9.826;2022-12-17T14:38:19;47.50;;;18.70;;
20140;SDS011;10231;47.702;9.826;2022-12-17T14:40:45;20.37;;;15.90;;
20140;SDS011;10231;47.702;9.826;2022-12-17T14:43:11;21.57;;;16.83;;
20140;SDS011;10231;47.702;9.826;2022-12-17T14:45:38;21.03;;;16.10;;
20140;SDS011;10231;47.702;9.826;2022-12-17T14:48:32;19.87;;;15.60;;
20140;SDS011;10231;47.702;9.826;2022-12-17T14:51:36;20.73;;;16.40;;
20140;SDS011;10231;47.702;9.826;2022-12-17T14:56:38;22.93;;;16.83;;
20140;SDS011;10231;47.702;9.826;2022-12-17T14:59:23;21.87;;;15.87;;
20140;SDS011;10231;47.702;9.826;2022-12-17T15:01:58;23.03;;;16.63;;
20140;SDS011;10231;47.702;9.826;2022-12-17T15:04:26;23.90;;;17.13;;
20140;SDS011;10231;47.702;9.826;2022-12-17T15:06:52;24.20;;;17.03;;
20140;SDS011;10231;47.702;9.826;2022-12-17T15:09:19;25.57;;;18.10;;
20140;SDS011;10231;47.702;9.826;2022-12-17T15:11:45;27.93;;;18.50;;
20140;SDS011;10231;47.702;9.826;2022-12-17T15:14:10;26.47;;;18.73;;
20140;SDS011;10231;47.702;9.826;2022-12-17T15:16:36;24.07;;;17.33;;
20140;SDS011;10231;47.702;9.826;2022-12-17T15:19:01;24.87;;;18.03;;
20140;SDS011;10231;47.702;9.826;2022-12-17T15:21:27;28.63;;;18.70;;
20140;SDS011;10231;47.702;9.826;2022-12-17T15:23:53;26.60;;;18.17;;
20140;SDS011;10231;47.702;9.826;2022-12-17T15:26:19;28.63;;;19.23;;
20140;SDS011;10231;47.702;9.826;2022-12-17T15:28:45;26.70;;;18.07;;
20140;SDS011;10231;47.702;9.826;2022-12-17T15:31:11;26.20;;;19.50;;
20140;SDS011;10231;47.702;9.826;2022-12-17T15:33:38;27.10;;;18.40;;
20140;SDS011;10231;47.702;9.826;2022-12-17T15:36:04;24.90;;;17.57;;
20140;SDS011;10231;47.702;9.826;2022-12-17T15:38:30;24.07;;;17.63;;
20140;SDS011;10231;47.702;9.826;2022-12-17T15:41:00;25.57;;;17.53;;
20140;SDS011;10231;47.702;9.826;2022-12-17T15:43:47;25.43;;;18.03;;
20140;SDS011;10231;47.702;9.826;2022-12-17T15:46:13;29.07;;;19.40;;
20140;SDS011;10231;47.702;9.826;2022-12-17T15:48:39;28.47;;;20.50;;
20140;SDS011;10231;47.702;9.826;2022-12-17T15:51:05;28.20;;;20.00;;
20140;SDS011;10231;47.702;9.826;2022-12-17T15:53:30;28.93;;;19.77;;
20140;SDS011;10231;47.702;9.826;2022-12-17T15:55:59;33.23;;;25.97;;
20140;SDS011;10231;47.702;9.826;2022-12-17T15:58:25;41.37;;;25.57;;
20140;SDS011;10231;47.702;9.826;2022-12-17T16:00:51;50.60;;;29.73;;
20140;SDS011;10231;47.702;9.826;2022-12-17T16:03:17;30.83;;;21.13;;
20140;SDS011;10231;47.702;9.826;2022-12-17T16:05:42;27.63;;;20.23;;
20140;SDS011;10231;47.702;9.826;2022-12-17T16:08:08;24.53;;;17.70;;
20140;SDS011;10231;47.702;9.826;2022-12-17T16:10:34;30.03;;;20.40;;
20140;SDS011;10231;47.702;9.826;2022-12-17T16:13:00;30.80;;;20.93;;
20140;SDS011;10231;47.702;9.826;2022-12-17T16:15:26;31.77;;;22.13;;
20140;SDS011;10231;47.702;9.826;2022-12-17T16:17:51;31.80;;;21.20;;
20140;SDS011;10231;47.702;9.826;2022-12-17T16:20:17;31.30;;;21.47;;
20140;SDS011;10231;47.702;9.826;2022-12-17T16:22:43;32.27;;;23.33;;
20140;SDS011;10231;47.702;9.826;2022-12-17T16:25:08;33.40;;;22.87;;
20140;SDS011;10231;47.702;9.826;2022-12-17T16:27:34;34.70;;;24.37;;
20140;SDS011;10231;47.702;9.826;2022-12-17T16:29:59;35.10;;;24.13;;
20140;SDS011;10231;47.702;9.826;2022-12-17T16:32:27;28.87;;;19.90;;
20140;SDS011;10231;47.702;9.826;2022-12-17T16:34:53;31.17;;;22.10;;
20140;SDS011;10231;47.702;9.826;2022-12-17T16:37:18;31.80;;;23.50;;
20140;SDS011;10231;47.702;9.826;2022-12-17T16:39:44;36.73;;;24.23;;
20140;SDS011;10231;47.702;9.826;2022-12-17T16:42:09;32.77;;;23.73;;
20140;SDS011;10231;47.702;9.826;2022-12-17T16:44:35;33.97;;;23.67;;
20140;SDS011;10231;47.702;9.826;2022-12-17T16:47:01;33.47;;;22.63;;
20140;SDS011;10231;47.702;9.826;2022-12-17T16:49:27;34.53;;;23.27;;
20140;SDS011;10231;47.702;9.826;2022-12-17T16:51:53;33.87;;;22.33;;
20140;SDS011;10231;47.702;9.826;2022-12-17T16:54:20;39.07;;;25.70;;
20140;SDS011;10231;47.702;9.826;2022-12-17T16:56:48;35.33;;;24.57;;
20140;SDS011;10231;47.702;9.826;2022-12-17T16:59:14;37.83;;;25.20;;
20140;SDS011;10231;47.702;9.826;2022-12-17T17:01:41;35.57;;;25.37;;
20140;SDS011;10231;47.702;9.826;2022-12-17T17:04:09;40.87;;;25.77;;
20140;SDS011;10231;47.702;9.826;2022-12-17T17:06:39;38.20;;;26.40;;
20140;SDS011;10231;47.702;9.826;2022-12-17T17:09:05;37.70;;;25.50;;
20140;SDS011;10231;47.702;9.826;2022-12-17T17:11:31;38.23;;;25.57;;
20140;SDS011;10231;47.702;9.826;2022-12-17T17:13:57;38.67;;;25.67;;
20140;SDS011;10231;47.702;9.826;2022-12-17T17:16:23;39.10;;;27.27;;